Time;durP1;ratioP1;P1;durP2;ratioP2;P2;SDS_P1;SDS_P2;PMS_P1;PMS_P2;Temp;Humidity;BMP_temperature;BMP_pressure;BME280_temperature;BME280_humidity;BME280_pressure;Samples;Min_cycle;Max_cycle;Signal;HPM_P1;HPM_P2
2021/10/25 00:00:38;;;;;;;16.27;3.75;;;;;;;16.26;68.83;100387.84;5032674;28;20026;-93
2021/10/25 00:03:03;;;;;;;11.93;2.70;;;;;;;16.30;67.91;100386.59;5032125;28;20075;-94
2021/10/25 00:05:29;;;;;;;19.75;3.17;;;;;;;16.28;68.58;100385.91;5032883;28;20515;-93
2021/10/25 00:07:55;;;;;;;19.33;3.55;;;;;;;16.22;68.60;100387.28;5051901;28;20502;-93
2021/10/25 00:10:20;;;;;;;20.23;3.45;;;;;;;16.13;68.40;100382.84;5036053;28;20064;-93
2021/10/25 00:12:45;;;;;;;16.38;3.75;;;;;;;16.18;68.80;100391.22;5032114;28;20041;-93
2021/10/25 00:15:11;;;;;;;16.95;3.53;;;;;;;16.08;68.82;100384.25;5046406;28;20108;-93
2021/10/25 00:17:37;;;;;;;14.60;2.72;;;;;;;15.97;68.88;100377.28;5051828;28;20053;-93
2021/10/25 00:20:06;;;;;;;18.33;3.17;;;;;;;15.91;68.58;100378.66;5038522;28;20034;-93
2021/10/25 00:22:31;;;;;;;12.43;2.72;;;;;;;15.85;68.70;100380.06;5014251;28;20021;-93
2021/10/25 00:24:57;;;;;;;14.32;2.30;;;;;;;15.79;68.53;100380.63;5046185;28;20055;-93
2021/10/25 00:27:23;;;;;;;12.73;2.45;;;;;;;15.82;68.78;100383.00;5043906;28;20026;-93
2021/10/25 00:29:49;;;;;;;16.90;3.38;;;;;;;15.84;68.75;100380.22;5040185;28;20075;-93
2021/10/25 00:32:14;;;;;;;14.95;2.97;;;;;;;15.81;68.92;100378.66;5031882;28;20100;-93
2021/10/25 00:34:40;;;;;;;19.00;3.53;;;;;;;15.85;68.68;100380.06;5015078;28;20111;-93
2021/10/25 00:37:05;;;;;;;20.38;3.50;;;;;;;15.85;69.20;100369.47;5031657;28;20033;-93
2021/10/25 00:39:31;;;;;;;17.98;2.75;;;;;;;15.59;70.22;100373.59;5034307;28;20124;-93
2021/10/25 00:41:58;;;;;;;14.38;2.80;;;;;;;15.65;70.40;100367.75;5014033;28;20117;-93
2021/10/25 00:44:26;;;;;;;15.65;2.70;;;;;;;15.64;70.03;100366.09;5031648;28;20029;-92
2021/10/25 00:46:52;;;;;;;15.15;2.90;;;;;;;15.69;69.28;100366.50;5014014;28;20041;-93
2021/10/25 00:49:17;;;;;;;10.52;2.88;;;;;;;15.67;69.16;100365.81;5038445;28;20064;-93
2021/10/25 00:51:44;;;;;;;16.13;4.07;;;;;;;15.53;69.25;100364.41;5051731;28;20505;-93
2021/10/25 00:54:09;;;;;;;10.73;2.85;;;;;;;15.56;69.18;100369.44;5051311;28;20025;-92
2021/10/25 00:56:41;;;;;;;8.35;1.88;;;;;;;15.50;69.02;100371.78;5033666;28;20036;-93
2021/10/25 00:59:06;;;;;;;8.70;2.00;;;;;;;15.43;69.01;100359.09;5048875;28;20086;-92
2021/10/25 01:01:31;;;;;;;8.80;2.53;;;;;;;15.40;68.23;100367.31;5041673;28;20034;-92
2021/10/25 01:03:57;;;;;;;24.90;3.72;;;;;;;15.42;69.70;100368.03;5035296;28;20051;-92
2021/10/25 01:06:23;;;;;;;19.60;3.78;;;;;;;15.59;69.22;100358.56;5045578;28;20036;-92
2021/10/25 01:08:50;;;;;;;17.67;3.00;;;;;;;15.60;67.92;100356.75;5037605;28;20024;-92
2021/10/25 01:11:16;;;;;;;9.15;2.30;;;;;;;15.62;67.83;100360.09;5037522;28;20021;-93
2021/10/25 01:13:41;;;;;;;14.55;3.20;;;;;;;15.62;68.19;100355.66;5036875;28;20036;-92
2021/10/25 01:16:08;;;;;;;14.20;3.35;;;;;;;15.61;67.86;100361.91;5037045;28;20088;-92
2021/10/25 01:18:34;;;;;;;15.88;2.63;;;;;;;15.61;68.39;100361.91;5035064;28;20079;-93
2021/10/25 01:21:00;;;;;;;13.68;2.63;;;;;;;15.70;68.61;100359.41;5017405;28;20029;-92
2021/10/25 01:23:25;;;;;;;21.70;3.15;;;;;;;15.76;68.79;100364.19;5033289;28;20080;-92
2021/10/25 01:25:51;;;;;;;14.55;3.17;;;;;;;15.74;68.22;100364.34;5054074;28;20495;-93
2021/10/25 01:28:17;;;;;;;17.95;3.80;;;;;;;15.63;67.70;100359.97;5043931;28;20399;-93
2021/10/25 01:30:42;;;;;;;16.40;2.70;;;;;;;15.57;67.66;100359.69;5017108;28;20017;-92
2021/10/25 01:33:14;;;;;;;16.92;3.13;;;;;;;15.57;67.41;100357.03;5034955;28;20430;-92
2021/10/25 01:35:39;;;;;;;;;;;;;;;15.51;67.22;100360.22;5052564;28;20029;-92
2021/10/25 01:38:04;;;;;;;16.63;3.13;;;;;;;15.29;67.10;100361.31;5054684;28;20407;-92
2021/10/25 01:40:30;;;;;;;11.38;2.28;;;;;;;15.26;67.26;100363.25;5054805;28;20070;-93
2021/10/25 01:42:55;;;;;;;13.70;2.60;;;;;;;15.20;67.07;100344.44;5050240;28;20096;-92
2021/10/25 01:45:21;;;;;;;7.85;1.95;;;;;;;15.26;67.12;100351.81;5031397;28;20028;-92
2021/10/25 01:47:46;;;;;;;14.02;3.10;;;;;;;15.18;66.88;100349.03;5054431;28;20029;-93
2021/10/25 01:50:11;;;;;;;11.55;2.60;;;;;;;15.18;66.89;100349.03;5042140;28;20507;-92
2021/10/25 01:52:37;;;;;;;18.60;3.78;;;;;;;15.24;67.31;100351.13;5016831;28;20026;-92
2021/10/25 01:55:03;;;;;;;12.05;2.85;;;;;;;15.17;66.95;100347.38;5044730;28;20088;-93
2021/10/25 01:57:29;;;;;;;13.93;2.40;;;;;;;15.24;67.13;100353.75;5049347;28;20065;-92
2021/10/25 01:59:54;;;;;;;19.20;2.67;;;;;;;15.40;67.24;100347.94;5044608;28;20080;-92
2021/10/25 02:02:21;;;;;;;21.92;3.33;;;;;;;15.51;68.10;100354.94;5035706;28;20052;-92
2021/10/25 02:04:46;;;;;;;18.10;2.58;;;;;;;15.32;68.00;100351.28;5043654;28;20025;-93
2021/10/25 02:07:12;;;;;;;11.18;2.45;;;;;;;15.18;68.81;100343.72;5054177;28;20029;-92
2021/10/25 02:09:38;;;;;;;24.70;3.22;;;;;;;15.39;69.43;100352.41;5036675;28;20475;-92
2021/10/25 02:12:03;;;;;;;17.92;2.50;;;;;;;15.39;68.94;100341.81;5033782;28;20025;-91
2021/10/25 02:14:29;;;;;;;14.05;2.45;;;;;;;15.49;68.98;100348.94;5041638;28;20132;-93
2021/10/25 02:16:54;;;;;;;9.63;2.42;;;;;;;15.26;69.04;100341.25;5053952;28;20391;-92
2021/10/25 02:19:19;;;;;;;18.20;2.38;;;;;;;15.27;68.82;100338.47;5036280;28;20074;-92
2021/10/25 02:21:45;;;;;;;11.45;2.38;;;;;;;15.19;68.97;100333.03;5044964;28;20030;-93
2021/10/25 02:24:11;;;;;;;17.70;2.80;;;;;;;15.26;69.04;100341.25;5051486;28;20029;-92
2021/10/25 02:26:37;;;;;;;12.25;2.35;;;;;;;15.26;69.04;100346.53;5036057;28;20056;-92
2021/10/25 02:29:03;;;;;;;12.50;1.90;;;;;;;15.29;68.93;100340.97;5053148;28;20064;-92
2021/10/25 02:31:29;;;;;;;15.50;3.70;;;;;;;15.24;69.43;100338.75;5026705;28;20037;-93
2021/10/25 02:33:54;;;;;;;11.25;2.20;;;;;;;15.36;69.27;100331.50;5016156;28;20045;-92
2021/10/25 02:36:19;;;;;;;19.95;3.28;;;;;;;15.41;69.16;100339.88;5035110;28;20033;-92
2021/10/25 02:38:45;;;;;;;14.32;2.70;;;;;;;15.42;69.51;100341.56;5015895;28;20025;-92
2021/10/25 02:41:11;;;;;;;15.75;2.97;;;;;;;15.60;69.44;100344.38;5022055;28;20029;-92
2021/10/25 02:43:37;;;;;;;11.95;1.95;;;;;;;15.81;68.80;100335.47;5034910;28;20116;-92
2021/10/25 02:46:03;;;;;;;24.08;3.40;;;;;;;15.84;68.89;100333.38;5017426;28;20602;-92
2021/10/25 02:48:29;;;;;;;22.75;3.40;;;;;;;15.90;68.66;100325.88;5033342;28;20032;-92
2021/10/25 02:50:55;;;;;;;17.50;2.75;;;;;;;15.96;68.58;100330.59;5034505;28;20066;-93
2021/10/25 02:53:22;;;;;;;16.05;2.65;;;;;;;16.03;69.04;100329.03;5035340;28;20031;-92
2021/10/25 02:55:48;;;;;;;17.05;2.80;;;;;;;16.08;68.26;100326.81;5035563;28;20514;-93
2021/10/25 02:58:14;;;;;;;19.13;3.58;;;;;;;16.08;68.27;100321.53;5053183;28;20031;-93
2021/10/25 03:00:40;;;;;;;21.67;3.22;;;;;;;15.99;68.11;100323.19;5043149;28;20037;-93
2021/10/25 03:03:05;;;;;;;14.38;2.72;;;;;;;16.07;68.58;100319.84;5051254;28;20021;-92
2021/10/25 03:05:31;;;;;;;17.23;2.90;;;;;;;16.06;67.90;100304.94;5053067;28;20078;-93
2021/10/25 03:07:56;;;;;;;14.90;2.42;;;;;;;16.04;67.96;100320.13;5035081;28;20032;-92
2021/10/25 03:10:22;;;;;;;18.60;2.25;;;;;;;16.05;68.25;100309.41;5040883;28;20030;-92
2021/10/25 03:12:47;;;;;;;18.23;2.67;;;;;;;16.12;68.56;100309.66;5033472;28;20112;-92
2021/10/25 03:15:14;;;;;;;25.08;3.65;;;;;;;16.16;68.37;100307.56;5033009;28;20028;-92
2021/10/25 03:17:40;;;;;;;14.63;2.70;;;;;;;16.04;68.81;100312.19;5033048;28;20025;-92
2021/10/25 03:20:06;;;;;;;13.93;2.00;;;;;;;15.89;68.50;100314.44;5025230;28;20029;-91
2021/10/25 03:22:31;;;;;;;11.70;2.55;;;;;;;15.83;68.61;100307.06;5051896;28;20028;-92
2021/10/25 03:24:58;;;;;;;16.73;2.83;;;;;;;15.84;68.85;100308.72;5052920;28;20082;-92
2021/10/25 03:27:24;;;;;;;21.48;2.75;;;;;;;15.83;69.68;100305.22;5050948;28;20356;-92
2021/10/25 03:29:50;;;;;;;10.73;2.25;;;;;;;15.68;68.80;100303.97;5032688;28;20025;-93
2021/10/25 03:32:15;;;;;;;11.68;1.90;;;;;;;15.88;68.44;100309.25;5032730;28;20022;-92
2021/10/25 03:34:41;;;;;;;19.02;2.90;;;;;;;15.89;68.54;100305.66;5032655;28;20036;-90
2021/10/25 03:37:07;;;;;;;14.93;2.40;;;;;;;15.82;68.07;100308.88;5033680;28;20049;-90
2021/10/25 03:39:36;;;;;;;13.98;2.70;;;;;;;15.90;68.31;100310.00;5051784;28;20033;-93
2021/10/25 03:42:06;;;;;;;10.25;2.05;;;;;;;15.90;68.13;100305.53;5033992;28;20034;-92
2021/10/25 03:44:43;;;;;;;12.80;2.20;;;;;;;15.93;68.02;100302.56;5032397;28;20029;-92
2021/10/25 03:47:16;;;;;;;22.75;3.33;;;;;;;16.04;68.00;100306.91;5014690;28;20018;-92
2021/10/25 03:52:35;;;;;;;12.38;2.38;;;;;;;15.99;68.20;100293.22;5032405;28;20033;-92
2021/10/25 03:55:11;;;;;;;16.20;2.90;;;;;;;16.01;68.40;100299.22;5032076;28;20053;-92
2021/10/25 03:58:01;;;;;;;16.33;3.22;;;;;;;15.98;68.37;100310.94;5014565;28;20022;-92
2021/10/25 04:29:45;;;;;;;24.85;3.72;;;;;;;16.18;69.18;100306.44;5051248;28;20025;-92
2021/10/25 04:32:11;;;;;;;15.38;2.67;;;;;;;16.19;68.93;100317.88;5051693;28;20025;-92
2021/10/25 04:34:36;;;;;;;9.95;1.90;;;;;;;16.21;68.89;100316.75;5051577;28;20468;-92
2021/10/25 04:37:02;;;;;;;16.25;2.38;;;;;;;16.17;69.05;100318.03;5051503;28;20025;-92
2021/10/25 04:39:28;;;;;;;10.45;2.00;;;;;;;16.08;69.63;100316.22;5041966;28;20037;-92
2021/10/25 04:41:54;;;;;;;11.25;1.77;;;;;;;16.06;69.22;100319.00;5049892;28;20391;-92
2021/10/25 04:44:20;;;;;;;16.98;3.20;;;;;;;15.97;69.51;100309.25;5033826;28;20040;-92
2021/10/25 04:46:45;;;;;;;16.02;2.58;;;;;;;16.01;69.31;100313.28;5033519;28;20079;-93
2021/10/25 04:49:10;;;;;;;10.30;2.15;;;;;;;16.09;69.19;100317.88;5018400;28;20037;-92
2021/10/25 04:51:36;;;;;;;19.65;3.85;;;;;;;16.11;68.96;100329.16;5031590;28;20029;-92
2021/10/25 04:54:02;;;;;;;15.43;2.80;;;;;;;16.04;68.91;100320.13;5033647;28;20029;-91
2021/10/25 04:56:29;;;;;;;17.70;2.78;;;;;;;15.95;69.30;100326.28;5042145;28;20029;-92
2021/10/25 04:58:54;;;;;;;12.95;2.63;;;;;;;15.97;69.28;100325.16;5050123;28;20064;-91
2021/10/25 05:01:19;;;;;;;12.80;2.25;;;;;;;15.91;69.23;100322.25;5039309;28;20064;-92
2021/10/25 05:03:45;;;;;;;18.00;2.88;;;;;;;15.88;68.65;100322.50;5031490;28;20029;-92
2021/10/25 05:06:17;;;;;;;16.17;3.17;;;;;;;15.80;69.03;100324.06;5031162;28;20028;-91
2021/10/25 05:08:42;;;;;;;15.18;3.35;;;;;;;15.96;69.02;100322.66;5040987;28;20017;-92
2021/10/25 05:11:08;;;;;;;16.17;2.38;;;;;;;15.90;68.59;100317.94;5020187;28;20121;-92
2021/10/25 05:13:33;;;;;;;16.00;2.92;;;;;;;15.82;68.51;100316.81;5031216;28;20028;-91
2021/10/25 05:15:59;;;;;;;15.02;2.95;;;;;;;15.76;69.00;100312.09;5013624;28;20312;-91
2021/10/25 05:18:24;;;;;;;15.63;2.90;;;;;;;15.55;69.63;100311.34;5038711;28;20473;-91
2021/10/25 05:20:50;;;;;;;15.13;3.35;;;;;;;15.54;69.61;100320.25;5041631;28;20027;-92
2021/10/25 05:23:15;;;;;;;12.15;2.70;;;;;;;15.44;69.92;100302.56;5046654;28;20078;-92
2021/10/25 05:25:41;;;;;;;20.00;3.15;;;;;;;15.50;70.15;100317.06;5051099;28;20279;-90
2021/10/25 05:28:07;;;;;;;20.30;2.05;;;;;;;15.53;70.13;100315.94;5047644;28;20025;-92
2021/10/25 05:30:32;;;;;;;10.68;2.20;;;;;;;15.53;70.15;100313.31;5039665;28;20026;-91
2021/10/25 05:32:58;;;;;;;17.55;2.00;;;;;;;15.60;70.10;100306.47;5031302;28;20026;-91
2021/10/25 05:35:24;;;;;;;19.67;2.30;;;;;;;15.62;70.14;100308.00;5031096;28;20033;-91
2021/10/25 05:37:49;;;;;;;14.32;2.58;;;;;;;15.65;69.35;100301.59;5032283;28;20057;-92
2021/10/25 05:40:15;;;;;;;15.60;2.85;;;;;;;15.69;69.69;100305.63;5039687;28;20541;-92
2021/10/25 05:42:41;;;;;;;15.93;2.05;;;;;;;15.65;69.78;100298.94;5050985;28;20395;-92
2021/10/25 05:45:06;;;;;;;18.85;2.53;;;;;;;15.53;69.44;100305.38;5017368;28;20124;-92
2021/10/25 05:47:32;;;;;;;14.85;2.40;;;;;;;15.59;69.67;100318.03;5049027;28;20033;-92
2021/10/25 05:49:58;;;;;;;14.95;2.47;;;;;;;15.64;69.43;100308.72;5034965;28;20175;-91
2021/10/25 05:52:24;;;;;;;23.70;3.35;;;;;;;15.54;69.56;100307.88;5036099;28;20025;-92
2021/10/25 05:54:50;;;;;;;9.80;2.00;;;;;;;15.46;69.42;100305.06;5053133;28;20028;-91
2021/10/25 05:57:17;;;;;;;10.02;2.17;;;;;;;15.36;69.56;100302.41;5021539;28;20403;-92
2021/10/25 05:59:44;;;;;;;14.68;2.13;;;;;;;15.34;70.04;100309.66;5048264;28;20044;-92
2021/10/25 06:02:21;;;;;;;14.32;2.47;;;;;;;15.23;69.55;100293.91;5018683;28;20463;-91
2021/10/25 06:04:47;;;;;;;17.92;2.75;;;;;;;15.13;69.62;100293.91;5048320;28;20471;-91
2021/10/25 06:07:13;;;;;;;8.38;1.70;;;;;;;15.08;69.22;100298.75;5041575;28;20156;-92
2021/10/25 06:09:38;;;;;;;11.85;3.05;;;;;;;15.03;69.02;100306.28;5034448;28;20382;-92
2021/10/25 06:12:17;;;;;;;7.40;1.48;;;;;;;14.95;69.21;100301.66;5034229;28;20499;-92
2021/10/25 06:14:44;;;;;;;11.15;1.92;;;;;;;14.82;69.12;100306.34;5021515;28;20021;-92
2021/10/25 06:20:01;;;;;;;10.53;1.60;;;;;;;14.84;68.32;100307.03;5025829;28;20041;-92
2021/10/25 06:22:28;;;;;;;13.05;3.22;;;;;;;14.90;68.83;100314.44;5034015;28;20063;-92
2021/10/25 06:24:54;;;;;;;8.68;2.53;;;;;;;14.86;69.27;100305.09;5039715;28;20025;-92
2021/10/25 06:27:19;;;;;;;14.02;2.60;;;;;;;14.88;68.76;100314.56;5040127;28;20033;-92
2021/10/25 06:29:44;;;;;;;16.38;3.00;;;;;;;14.88;69.21;100313.72;5048655;28;20108;-93
2021/10/25 06:32:11;;;;;;;18.15;2.70;;;;;;;14.91;69.27;100317.91;5039538;28;20056;-92
2021/10/25 06:34:49;;;;;;;19.85;2.35;;;;;;;14.74;71.73;100308.81;5025393;28;20025;-91
2021/10/25 06:37:14;;;;;;;8.25;2.33;;;;;;;14.91;69.69;100313.47;5015781;28;20403;-92
2021/10/25 06:39:40;;;;;;;11.00;1.95;;;;;;;14.97;69.68;100305.00;5039072;28;20030;-92
2021/10/25 06:42:06;;;;;;;11.38;3.22;;;;;;;15.02;69.76;100316.00;5035821;28;20030;-93
2021/10/25 06:45:20;;;;;;;6.95;1.67;;;;;;;15.09;69.65;100313.66;5043231;28;20024;-87
2021/10/25 06:47:21;;;;;;;9.75;2.42;;;;;;;15.03;69.50;100315.03;5026922;28;20275;-87
2021/10/25 06:49:46;;;;;;;9.55;1.45;;;;;;;14.96;70.28;100324.47;5044346;28;20037;-87
2021/10/25 06:52:12;;;;;;;10.30;2.10;;;;;;;14.92;70.66;100332.81;5045006;28;20017;-87
2021/10/25 06:54:37;;;;;;;9.80;2.13;;;;;;;14.89;70.18;100333.91;5047016;28;20099;-87
2021/10/25 06:57:03;;;;;;;8.80;1.88;;;;;;;14.91;70.39;100336.41;5049433;28;20151;-87
2021/10/25 06:59:28;;;;;;;17.08;3.25;;;;;;;14.95;70.45;100341.31;5045333;28;20032;-87
2021/10/25 07:01:55;;;;;;;13.45;2.55;;;;;;;14.94;70.31;100336.16;5047753;28;20061;-87
2021/10/25 07:04:20;;;;;;;14.45;2.25;;;;;;;15.02;70.64;100346.88;5061264;28;20387;-87
2021/10/25 07:06:46;;;;;;;16.35;2.33;;;;;;;15.00;70.86;100349.66;5042889;28;20017;-87
2021/10/25 07:09:11;;;;;;;11.05;2.03;;;;;;;15.05;70.55;100349.28;5036337;28;20051;-87
2021/10/25 07:11:42;;;;;;;21.85;2.40;;;;;;;15.14;70.75;100342.34;5043979;28;20399;-87
2021/10/25 07:14:08;;;;;;;26.60;2.90;;;;;;;15.22;70.87;100343.31;5036256;28;20503;-88
2021/10/25 07:16:41;;;;;;;12.10;2.72;;;;;;;15.32;71.62;100350.44;5033708;28;20049;-87
2021/10/25 07:19:32;;;;;;;13.70;2.03;;;;;;;15.43;70.89;100355.63;5034972;28;20070;-88
2021/10/25 08:00:52;;;;;;;13.80;2.30;;;;;;;17.40;67.38;100369.19;5031152;28;20040;-87
2021/10/25 08:11:13;;;;;;;7.45;1.55;;;;;;;18.57;64.23;100369.03;5035203;28;20030;-87
2021/10/25 08:13:44;;;;;;;12.43;1.70;;;;;;;18.45;62.43;100366.78;5031147;28;20025;-87
2021/10/25 08:21:11;;;;;;;13.88;1.98;;;;;;;17.98;63.14;100376.72;5034724;28;20030;-90
2021/10/25 08:23:38;;;;;;;8.70;1.70;;;;;;;17.72;63.51;100381.94;5034377;28;20043;-89
2021/10/25 08:26:04;;;;;;;11.18;1.88;;;;;;;17.78;64.40;100375.19;5040624;28;20060;-87
2021/10/25 08:28:29;;;;;;;10.82;2.47;;;;;;;17.91;64.45;100382.81;5033816;28;20056;-88
2021/10/25 08:30:54;;;;;;;13.25;1.50;;;;;;;17.95;64.09;100378.84;5031231;28;20123;-88
2021/10/25 08:41:19;;;;;;;8.25;1.75;;;;;;;18.23;63.88;100369.78;5037906;28;20126;-88
2021/10/25 08:43:46;;;;;;;12.45;1.63;;;;;;;18.36;63.46;100371.19;5051611;28;20110;-88
2021/10/25 08:46:15;;;;;;;19.98;2.33;;;;;;;18.58;63.71;100376.03;5039580;28;20479;-88
2021/10/25 08:48:44;;;;;;;14.00;1.85;;;;;;;18.88;63.30;100373.88;5051410;28;20025;-89
2021/10/25 08:51:10;;;;;;;9.38;1.23;;;;;;;19.14;62.79;100373.81;5038551;28;20155;-88
2021/10/25 08:53:36;;;;;;;8.77;1.98;;;;;;;20.24;62.22;100370.16;5040992;28;20029;-88
2021/10/25 08:56:02;;;;;;;13.27;1.60;;;;;;;20.89;60.45;100383.41;5041643;28;20028;-90
2021/10/25 08:58:28;;;;;;;11.18;1.40;;;;;;;21.57;57.97;100381.09;5022789;28;20030;-89
2021/10/25 09:00:54;;;;;;;7.47;1.48;;;;;;;21.90;57.58;100383.53;5051082;28;20029;-89
2021/10/25 09:03:23;;;;;;;9.88;1.70;;;;;;;21.27;57.72;100382.72;5027343;28;20094;-89
2021/10/25 09:05:54;;;;;;;12.75;1.88;;;;;;;21.37;55.13;100378.03;5020118;28;20025;-95
2021/10/25 09:08:19;;;;;;;15.20;2.50;;;;;;;21.00;56.82;100376.84;5045489;28;20033;-88
2021/10/25 09:10:46;;;;;;;10.93;1.48;;;;;;;20.34;57.19;100384.16;5032307;28;20080;-88
2021/10/25 09:13:30;;;;;;;14.75;2.00;;;;;;;20.14;58.29;100381.84;5033668;28;20029;-84
2021/10/25 09:15:58;;;;;;;9.55;1.48;;;;;;;19.88;58.69;100389.16;5034958;28;20064;-89
2021/10/25 09:18:30;;;;;;;13.07;1.65;;;;;;;21.03;59.72;100375.66;5013473;28;20380;-88
2021/10/25 09:21:07;;;;;;;11.20;3.28;;;;;;;21.19;57.13;100375.63;5035447;28;20443;-93
2021/10/25 09:23:40;;;;;;;11.30;1.77;;;;;;;20.33;57.10;100382.50;5036708;28;20068;-95
2021/10/25 09:26:12;;;;;;;9.90;1.95;;;;;;;20.12;58.75;100383.00;5053114;28;20064;-96
2021/10/25 09:28:51;;;;;;;4.85;1.15;;;;;;;19.97;58.74;100380.19;5020933;28;20031;-88
2021/10/25 09:31:35;;;;;;;5.95;1.15;;;;;;;20.36;57.46;100380.34;5040980;28;20029;-89
2021/10/25 09:34:05;;;;;;;11.70;1.77;;;;;;;19.63;60.33;100378.44;5045576;28;20018;-94
2021/10/25 09:36:40;;;;;;;7.95;1.55;;;;;;;21.32;57.30;100383.88;5040846;28;20033;-95
2021/10/25 09:39:16;;;;;;;10.60;2.03;;;;;;;21.77;55.50;100376.94;5034615;28;20033;-96
2021/10/25 09:50:50;;;;;;;4.50;0.93;;;;;;;22.12;52.01;100380.03;5098739;23;20254;-91
2021/10/25 09:53:15;;;;;;;10.00;1.27;;;;;;;23.36;51.23;100377.72;5033518;28;20091;-92
2021/10/25 09:55:43;;;;;;;7.22;1.17;;;;;;;23.60;48.70;100381.06;5032493;28;20060;-91
2021/10/25 09:58:17;;;;;;;5.65;0.95;;;;;;;23.83;48.54;100369.34;5020857;28;20030;-91
2021/10/25 10:00:43;;;;;;;6.95;1.15;;;;;;;23.45;49.27;100373.06;5001487;28;20030;-94
2021/10/25 10:03:08;;;;;;;7.68;0.95;;;;;;;24.63;47.92;100376.19;5007457;28;20523;-92
2021/10/25 10:05:36;;;;;;;6.90;1.08;;;;;;;24.71;46.85;100377.88;5005553;28;20038;-92
2021/10/25 10:08:03;;;;;;;6.50;1.55;;;;;;;23.48;47.96;100382.56;4997050;28;20093;-93
2021/10/25 10:10:29;;;;;;;6.68;1.10;;;;;;;24.19;47.48;100387.19;4977512;28;20374;-92
2021/10/25 10:12:55;;;;;;;5.40;1.25;;;;;;;24.37;46.40;100387.56;5007172;28;20049;-91
2021/10/25 10:15:24;;;;;;;6.20;1.05;;;;;;;24.96;45.05;100390.81;5012262;28;20029;-91
2021/10/25 10:18:05;;;;;;;5.93;1.48;;;;;;;25.38;45.35;100378.22;5011544;28;20119;-93
2021/10/25 10:20:34;;;;;;;4.78;1.02;;;;;;;24.88;45.21;100394.50;5007322;28;20074;-96
2021/10/25 10:23:05;;;;;;;4.07;0.80;;;;;;;25.84;43.89;100383.69;5012209;28;20026;-90
2021/10/25 10:25:30;;;;;;;5.30;1.35;;;;;;;26.04;42.78;100377.53;5011469;28;20039;-96
2021/10/25 10:28:17;;;;;;;5.03;1.00;;;;;;;26.63;41.88;100383.91;5037905;23;20037;-96
2021/10/25 10:33:18;;;;;;;5.50;0.88;;;;;;;27.92;40.61;100384.81;5201057;22;20037;-96
2021/10/25 10:35:45;;;;;;;3.58;1.17;;;;;;;28.30;39.92;100383.88;5061137;28;20009;-96
2021/10/25 10:38:12;;;;;;;3.78;0.80;;;;;;;28.44;39.48;100376.50;5580392;22;21074;-96
2021/10/25 10:40:41;;;;;;;3.58;0.90;;;;;;;28.94;38.60;100383.66;5140209;23;20075;-96
2021/10/25 10:43:20;;;;;;;8.73;0.98;;;;;;;29.52;38.34;100390.44;5039264;28;20189;-94
2021/10/25 10:46:00;;;;;;;7.68;1.10;;;;;;;28.35;38.27;100389.44;5037847;28;20116;-92
2021/10/25 10:48:29;;;;;;;3.75;0.70;;;;;;;28.78;36.67;100399.44;5033258;28;20076;-92
2021/10/25 10:51:08;;;;;;;5.20;0.80;;;;;;;28.17;37.38;100392.91;5040456;28;20018;-91
2021/10/25 10:53:39;;;;;;;8.32;0.98;;;;;;;27.52;38.19;100403.94;5050650;28;20188;-91
2021/10/25 11:01:29;;;;;;;;;;;;;;;24.79;43.05;100401.06;5038974;28;20038;-93
2021/10/25 11:03:59;;;;;;;5.00;0.80;;;;;;;25.12;42.23;100401.25;5048289;28;19916;-93
2021/10/25 11:06:35;;;;;;;4.40;0.98;;;;;;;24.76;43.86;100399.59;5032181;28;20025;-85
2021/10/25 11:09:11;;;;;;;7.88;1.27;;;;;;;23.98;44.84;100407.66;5032891;28;20472;-86
2021/10/25 11:11:41;;;;;;;10.18;0.90;;;;;;;24.09;44.93;100407.13;5036269;28;20052;-86
2021/10/25 11:14:14;;;;;;;5.45;0.95;;;;;;;24.55;44.29;100403.19;5033064;28;20084;-87
2021/10/25 11:16:55;;;;;;;8.27;1.17;;;;;;;23.20;47.05;100404.69;5033052;28;20033;-87
2021/10/25 11:19:20;;;;;;;6.85;1.02;;;;;;;22.74;48.70;100424.44;5041872;28;20129;-86
2021/10/25 11:21:53;;;;;;;3.83;0.60;;;;;;;21.70;51.63;100440.16;5047470;28;20033;-87
2021/10/25 11:24:21;;;;;;;4.93;0.52;;;;;;;21.36;52.33;100435.09;5052772;28;20036;-87
2021/10/25 11:26:48;;;;;;;4.45;0.70;;;;;;;21.12;52.65;100428.03;5040309;28;20029;-86
2021/10/25 11:29:16;;;;;;;2.08;0.30;;;;;;;21.08;53.43;100426.72;5038849;28;20029;-85
2021/10/25 11:32:14;;;;;;;1.73;0.40;;;;;;;21.18;53.11;100427.34;5032972;28;20021;-86
2021/10/25 11:34:46;;;;;;;3.13;0.50;;;;;;;21.37;55.52;100426.94;4987833;28;20115;-86
2021/10/25 11:37:18;;;;;;;2.28;0.30;;;;;;;22.36;52.63;100419.13;5044822;28;20065;-86
2021/10/25 11:40:03;;;;;;;4.22;0.35;;;;;;;22.88;50.59;100428.13;5041396;28;20029;-89
2021/10/25 11:42:31;;;;;;;2.00;0.30;;;;;;;23.33;49.68;100428.97;5041243;28;20068;-84
2021/10/25 11:45:04;;;;;;;2.85;0.50;;;;;;;23.13;48.78;100428.72;5035130;28;20033;-85
2021/10/25 11:47:31;;;;;;;2.40;0.40;;;;;;;23.97;49.41;100429.28;5033824;28;20519;-84
2021/10/25 11:50:06;;;;;;;1.65;0.35;;;;;;;24.13;47.48;100426.34;5042917;28;20111;-84
2021/10/25 11:52:39;;;;;;;2.53;0.40;;;;;;;24.49;47.35;100418.19;5039846;28;20036;-84
2021/10/25 11:55:05;;;;;;;4.38;0.55;;;;;;;24.80;47.08;100427.69;5047094;28;20082;-85
2021/10/25 11:57:32;;;;;;;3.17;0.50;;;;;;;25.13;46.95;100424.38;5050222;28;20390;-85
2021/10/25 11:59:59;;;;;;;2.22;0.43;;;;;;;25.47;45.67;100420.00;5044512;28;20035;-85
2021/10/25 12:02:25;;;;;;;2.53;0.40;;;;;;;25.58;43.84;100405.97;5032218;28;20029;-85
2021/10/25 12:04:51;;;;;;;5.95;0.80;;;;;;;26.35;44.30;100409.19;5031957;28;20021;-85
2021/10/25 12:07:16;;;;;;;3.53;0.80;;;;;;;26.24;42.23;100407.13;5032274;28;20151;-85
2021/10/25 12:09:42;;;;;;;2.70;0.50;;;;;;;26.55;42.84;100406.47;5032160;28;20029;-85
2021/10/25 12:12:18;;;;;;;4.80;0.63;;;;;;;27.13;43.39;100407.59;5032137;28;20112;-86
2021/10/25 12:14:45;;;;;;;3.42;0.60;;;;;;;26.57;43.02;100406.28;5031987;28;20095;-85
2021/10/25 12:17:16;;;;;;;4.20;0.90;;;;;;;26.49;42.21;100394.69;5031857;28;20104;-85
2021/10/25 12:19:45;;;;;;;3.83;0.85;;;;;;;26.96;41.46;100400.00;5043890;28;20488;-85
2021/10/25 12:22:15;;;;;;;6.00;1.17;;;;;;;27.04;41.58;100394.38;5051805;28;20056;-85
2021/10/25 12:24:45;;;;;;;3.55;0.63;;;;;;;26.09;41.68;100400.09;5049890;28;20022;-85
2021/10/25 12:27:17;;;;;;;6.40;0.90;;;;;;;25.37;44.16;100403.44;5051734;28;20017;-85
2021/10/25 12:29:44;;;;;;;3.97;0.80;;;;;;;25.45;43.26;100398.69;5047786;28;20094;-85
2021/10/25 12:32:12;;;;;;;6.20;0.80;;;;;;;24.18;45.36;100398.94;5031868;28;20041;-85
2021/10/25 12:34:52;;;;;;;4.10;0.80;;;;;;;24.98;44.62;100389.63;5032012;28;20518;-85
2021/10/25 12:37:19;;;;;;;6.10;0.80;;;;;;;24.58;43.47;100391.22;5031836;28;20037;-85
2021/10/25 12:39:45;;;;;;;3.78;0.60;;;;;;;24.41;44.12;100393.34;5031395;28;20037;-85
2021/10/25 12:42:10;;;;;;;3.78;0.77;;;;;;;23.69;44.03;100390.63;5031816;28;20028;-85
2021/10/25 12:44:41;;;;;;;4.90;1.23;;;;;;;24.05;43.85;100402.34;5031876;28;20118;-85
2021/10/25 12:47:12;;;;;;;4.72;1.05;;;;;;;23.44;44.71;100387.47;5031597;28;20503;-85
2021/10/25 12:49:38;;;;;;;4.75;0.88;;;;;;;23.70;45.98;100397.66;5040891;28;20033;-85
2021/10/25 12:52:10;;;;;;;7.15;1.15;;;;;;;23.44;45.48;100392.84;5049780;28;20036;-85
2021/10/25 12:54:37;;;;;;;4.72;1.17;;;;;;;23.44;48.36;100392.84;5052617;28;20021;-85
2021/10/25 12:57:25;;;;;;;5.97;1.38;;;;;;;23.72;48.56;100400.97;5055517;28;20019;-85
2021/10/25 13:00:06;;;;;;;7.05;0.98;;;;;;;23.87;48.30;100400.94;5055899;28;20036;-85
2021/10/25 13:02:31;;;;;;;12.57;1.40;;;;;;;22.60;48.69;100403.03;5055509;28;20552;-85
2021/10/25 13:05:08;;;;;;;4.47;0.68;;;;;;;22.30;49.50;100411.00;5054519;28;20065;-85
2021/10/25 13:07:34;;;;;;;3.05;0.40;;;;;;;22.55;49.97;100403.56;5036688;28;20036;-85
2021/10/25 13:09:59;;;;;;;1.08;0.30;;;;;;;22.39;49.64;100399.19;5035600;28;20041;-85
2021/10/25 13:12:25;;;;;;;2.38;0.60;;;;;;;22.76;50.08;100389.47;5053947;28;20118;-85
2021/10/25 13:14:50;;;;;;;6.40;1.23;;;;;;;22.39;50.12;100388.50;5054913;28;20044;-86
2021/10/25 13:17:17;;;;;;;3.50;0.70;;;;;;;22.73;49.64;100385.31;5054978;28;20021;-85